sensor_id;sensor_type;location;lat;lon;timestamp;P1;durP1;ratioP1;P2;durP2;ratioP2
1276;SDS011;631;51.024;13.826;2022-12-13T00:00:14;24.43;;;21.93;;
1276;SDS011;631;51.024;13.826;2022-12-13T00:02:42;22.25;;;20.15;;
1276;SDS011;631;51.024;13.826;2022-12-13T00:05:09;24.15;;;21.85;;
1276;SDS011;631;51.024;13.826;2022-12-13T00:07:35;24.88;;;22.35;;
1276;SDS011;631;51.024;13.826;2022-12-13T00:10:02;24.23;;;21.87;;
1276;SDS011;631;51.024;13.826;2022-12-13T00:12:28;23.90;;;21.60;;
1276;SDS011;631;51.024;13.826;2022-12-13T00:14:53;23.97;;;21.70;;
1276;SDS011;631;51.024;13.826;2022-12-13T00:17:19;23.60;;;21.30;;
1276;SDS011;631;51.024;13.826;2022-12-13T00:19:45;23.50;;;21.23;;
1276;SDS011;631;51.024;13.826;2022-12-13T00:22:12;23.23;;;21.02;;
1276;SDS011;631;51.024;13.826;2022-12-13T00:24:37;24.45;;;21.92;;
1276;SDS011;631;51.024;13.826;2022-12-13T00:27:03;27.60;;;21.50;;
1276;SDS011;631;51.024;13.826;2022-12-13T00:29:29;25.60;;;22.73;;
1276;SDS011;631;51.024;13.826;2022-12-13T00:31:55;26.10;;;23.40;;
1276;SDS011;631;51.024;13.826;2022-12-13T00:34:20;24.67;;;22.27;;
1276;SDS011;631;51.024;13.826;2022-12-13T00:36:46;24.43;;;22.03;;
1276;SDS011;631;51.024;13.826;2022-12-13T00:39:12;24.30;;;22.00;;
1276;SDS011;631;51.024;13.826;2022-12-13T00:41:40;23.27;;;21.17;;
1276;SDS011;631;51.024;13.826;2022-12-13T00:44:08;24.50;;;22.10;;
1276;SDS011;631;51.024;13.826;2022-12-13T00:46:36;23.73;;;21.38;;
1276;SDS011;631;51.024;13.826;2022-12-13T00:49:02;23.40;;;21.05;;
1276;SDS011;631;51.024;13.826;2022-12-13T00:51:29;24.02;;;21.80;;
1276;SDS011;631;51.024;13.826;2022-12-13T00:53:57;23.02;;;20.80;;
1276;SDS011;631;51.024;13.826;2022-12-13T00:56:24;23.75;;;21.65;;
1276;SDS011;631;51.024;13.826;2022-12-13T00:58:52;21.98;;;19.95;;
1276;SDS011;631;51.024;13.826;2022-12-13T01:01:20;22.35;;;20.25;;
1276;SDS011;631;51.024;13.826;2022-12-13T01:03:52;23.30;;;21.17;;
1276;SDS011;631;51.024;13.826;2022-12-13T01:06:28;23.60;;;21.30;;
1276;SDS011;631;51.024;13.826;2022-12-13T01:09:00;23.13;;;21.02;;
1276;SDS011;631;51.024;13.826;2022-12-13T01:11:27;23.20;;;21.00;;
1276;SDS011;631;51.024;13.826;2022-12-13T01:13:52;23.43;;;21.23;;
1276;SDS011;631;51.024;13.826;2022-12-13T01:16:18;23.10;;;20.90;;
1276;SDS011;631;51.024;13.826;2022-12-13T01:18:44;23.17;;;21.07;;
1276;SDS011;631;51.024;13.826;2022-12-13T01:21:11;21.77;;;19.63;;
1276;SDS011;631;51.024;13.826;2022-12-13T01:23:39;22.77;;;20.58;;
1276;SDS011;631;51.024;13.826;2022-12-13T01:26:06;22.38;;;20.23;;
1276;SDS011;631;51.024;13.826;2022-12-13T01:28:41;23.45;;;21.15;;
1276;SDS011;631;51.024;13.826;2022-12-13T01:31:11;23.00;;;20.75;;
1276;SDS011;631;51.024;13.826;2022-12-13T01:33:39;23.02;;;20.77;;
1276;SDS011;631;51.024;13.826;2022-12-13T01:36:06;22.73;;;20.63;;
1276;SDS011;631;51.024;13.826;2022-12-13T01:38:34;23.17;;;20.98;;
1276;SDS011;631;51.024;13.826;2022-12-13T01:41:00;23.83;;;21.52;;
1276;SDS011;631;51.024;13.826;2022-12-13T01:43:49;23.50;;;21.20;;
1276;SDS011;631;51.024;13.826;2022-12-13T01:46:16;22.00;;;20.05;;
1276;SDS011;631;51.024;13.826;2022-12-13T01:51:20;21.70;;;19.80;;
1276;SDS011;631;51.024;13.826;2022-12-13T01:53:54;21.45;;;19.52;;
1276;SDS011;631;51.024;13.826;2022-12-13T01:56:25;22.83;;;20.70;;
1276;SDS011;631;51.024;13.826;2022-12-13T01:58:57;22.00;;;20.00;;
1276;SDS011;631;51.024;13.826;2022-12-13T02:01:24;22.35;;;20.35;;
1276;SDS011;631;51.024;13.826;2022-12-13T02:03:51;21.10;;;19.10;;
1276;SDS011;631;51.024;13.826;2022-12-13T02:06:18;21.80;;;19.90;;
1276;SDS011;631;51.024;13.826;2022-12-13T02:09:04;22.63;;;20.52;;
1276;SDS011;631;51.024;13.826;2022-12-13T02:11:31;21.65;;;19.60;;
1276;SDS011;631;51.024;13.826;2022-12-13T02:13:59;22.45;;;20.25;;
1276;SDS011;631;51.024;13.826;2022-12-13T02:32:56;22.05;;;20.05;;
1276;SDS011;631;51.024;13.826;2022-12-13T02:41:32;22.35;;;20.15;;
1276;SDS011;631;51.024;13.826;2022-12-13T02:44:18;21.08;;;19.17;;
1276;SDS011;631;51.024;13.826;2022-12-13T02:47:00;22.48;;;20.35;;
1276;SDS011;631;51.024;13.826;2022-12-13T02:49:33;22.45;;;20.25;;
1276;SDS011;631;51.024;13.826;2022-12-13T02:52:04;23.40;;;20.98;;
1276;SDS011;631;51.024;13.826;2022-12-13T02:54:32;21.98;;;19.92;;
1276;SDS011;631;51.024;13.826;2022-12-13T02:56:58;23.30;;;21.10;;
1276;SDS011;631;51.024;13.826;2022-12-13T02:59:26;23.30;;;21.05;;
1276;SDS011;631;51.024;13.826;2022-12-13T03:07:49;21.60;;;19.70;;
1276;SDS011;631;51.024;13.826;2022-12-13T03:10:30;22.67;;;20.52;;
1276;SDS011;631;51.024;13.826;2022-12-13T03:13:02;23.23;;;20.50;;
1276;SDS011;631;51.024;13.826;2022-12-13T03:15:57;21.95;;;19.83;;
1276;SDS011;631;51.024;13.826;2022-12-13T03:18:28;22.65;;;20.45;;
1276;SDS011;631;51.024;13.826;2022-12-13T03:21:01;22.50;;;20.50;;
1276;SDS011;631;51.024;13.826;2022-12-13T03:23:29;22.90;;;20.70;;
1276;SDS011;631;51.024;13.826;2022-12-13T03:25:56;23.83;;;21.40;;
1276;SDS011;631;51.024;13.826;2022-12-13T03:28:28;23.00;;;20.70;;
1276;SDS011;631;51.024;13.826;2022-12-13T03:30:54;21.67;;;19.67;;
1276;SDS011;631;51.024;13.826;2022-12-13T03:33:20;22.60;;;20.40;;
1276;SDS011;631;51.024;13.826;2022-12-13T03:35:46;21.98;;;19.90;;
1276;SDS011;631;51.024;13.826;2022-12-13T03:38:13;22.65;;;20.55;;
1276;SDS011;631;51.024;13.826;2022-12-13T03:40:40;22.30;;;20.15;;
1276;SDS011;631;51.024;13.826;2022-12-13T03:43:06;22.47;;;20.27;;
1276;SDS011;631;51.024;13.826;2022-12-13T03:45:32;23.10;;;20.83;;
1276;SDS011;631;51.024;13.826;2022-12-13T03:47:57;22.73;;;20.63;;
1276;SDS011;631;51.024;13.826;2022-12-13T03:50:23;22.17;;;20.03;;
1276;SDS011;631;51.024;13.826;2022-12-13T03:52:48;22.73;;;20.60;;
1276;SDS011;631;51.024;13.826;2022-12-13T03:55:17;22.75;;;20.35;;
1276;SDS011;631;51.024;13.826;2022-12-13T03:57:43;22.80;;;20.80;;
1276;SDS011;631;51.024;13.826;2022-12-13T04:00:09;22.00;;;19.97;;
1276;SDS011;631;51.024;13.826;2022-12-13T04:02:35;22.23;;;20.13;;
1276;SDS011;631;51.024;13.826;2022-12-13T04:05:01;22.80;;;20.60;;
1276;SDS011;631;51.024;13.826;2022-12-13T04:07:26;22.63;;;20.60;;
1276;SDS011;631;51.024;13.826;2022-12-13T04:09:52;23.00;;;20.80;;
1276;SDS011;631;51.024;13.826;2022-12-13T04:12:17;22.40;;;20.20;;
1276;SDS011;631;51.024;13.826;2022-12-13T04:15:02;23.05;;;20.23;;
1276;SDS011;631;51.024;13.826;2022-12-13T04:17:28;23.50;;;21.27;;
1276;SDS011;631;51.024;13.826;2022-12-13T04:19:53;23.73;;;21.40;;
1276;SDS011;631;51.024;13.826;2022-12-13T04:22:19;22.57;;;20.37;;
1276;SDS011;631;51.024;13.826;2022-12-13T04:24:44;23.50;;;21.20;;
1276;SDS011;631;51.024;13.826;2022-12-13T04:27:10;22.00;;;19.90;;
1276;SDS011;631;51.024;13.826;2022-12-13T04:29:35;22.87;;;20.67;;
1276;SDS011;631;51.024;13.826;2022-12-13T04:32:02;22.13;;;19.90;;
1276;SDS011;631;51.024;13.826;2022-12-13T04:34:28;23.77;;;21.23;;
1276;SDS011;631;51.024;13.826;2022-12-13T04:36:54;23.13;;;20.67;;
1276;SDS011;631;51.024;13.826;2022-12-13T04:39:20;22.40;;;20.10;;
1276;SDS011;631;51.024;13.826;2022-12-13T04:41:45;23.10;;;20.90;;
1276;SDS011;631;51.024;13.826;2022-12-13T04:44:11;22.23;;;19.93;;
1276;SDS011;631;51.024;13.826;2022-12-13T04:46:37;25.43;;;22.73;;
1276;SDS011;631;51.024;13.826;2022-12-13T04:49:02;24.60;;;22.00;;
1276;SDS011;631;51.024;13.826;2022-12-13T04:51:28;23.80;;;21.20;;
1276;SDS011;631;51.024;13.826;2022-12-13T04:53:53;27.80;;;22.90;;
1276;SDS011;631;51.024;13.826;2022-12-13T04:56:19;24.57;;;21.97;;
1276;SDS011;631;51.024;13.826;2022-12-13T04:58:45;23.47;;;21.17;;
1276;SDS011;631;51.024;13.826;2022-12-13T05:01:10;22.87;;;20.37;;
1276;SDS011;631;51.024;13.826;2022-12-13T05:03:36;23.70;;;21.20;;
1276;SDS011;631;51.024;13.826;2022-12-13T05:06:07;22.55;;;20.17;;
1276;SDS011;631;51.024;13.826;2022-12-13T05:08:35;22.58;;;19.30;;
1276;SDS011;631;51.024;13.826;2022-12-13T05:11:01;24.85;;;20.52;;
1276;SDS011;631;51.024;13.826;2022-12-13T05:13:28;23.13;;;20.70;;
1276;SDS011;631;51.024;13.826;2022-12-13T05:15:54;24.23;;;21.63;;
1276;SDS011;631;51.024;13.826;2022-12-13T05:18:21;25.98;;;22.08;;
1276;SDS011;631;51.024;13.826;2022-12-13T05:20:47;24.43;;;21.80;;
1276;SDS011;631;51.024;13.826;2022-12-13T05:23:14;23.77;;;21.38;;
1276;SDS011;631;51.024;13.826;2022-12-13T05:25:41;24.15;;;21.75;;
1276;SDS011;631;51.024;13.826;2022-12-13T05:28:06;24.57;;;20.80;;
1276;SDS011;631;51.024;13.826;2022-12-13T05:30:32;23.83;;;21.33;;
1276;SDS011;631;51.024;13.826;2022-12-13T05:32:58;23.70;;;21.23;;
1276;SDS011;631;51.024;13.826;2022-12-13T05:35:23;24.67;;;20.00;;
1276;SDS011;631;51.024;13.826;2022-12-13T05:37:50;24.00;;;21.40;;
1276;SDS011;631;51.024;13.826;2022-12-13T05:40:16;22.77;;;20.63;;
1276;SDS011;631;51.024;13.826;2022-12-13T05:42:42;24.07;;;21.50;;
1276;SDS011;631;51.024;13.826;2022-12-13T05:45:07;25.20;;;21.90;;
1276;SDS011;631;51.024;13.826;2022-12-13T05:47:33;24.27;;;20.92;;
1276;SDS011;631;51.024;13.826;2022-12-13T05:49:59;21.67;;;19.37;;
1276;SDS011;631;51.024;13.826;2022-12-13T05:52:25;24.83;;;21.40;;
1276;SDS011;631;51.024;13.826;2022-12-13T05:54:54;25.33;;;21.47;;
1276;SDS011;631;51.024;13.826;2022-12-13T05:57:20;25.33;;;21.38;;
1276;SDS011;631;51.024;13.826;2022-12-13T05:59:46;26.67;;;21.88;;
1276;SDS011;631;51.024;13.826;2022-12-13T06:02:12;24.90;;;20.80;;
1276;SDS011;631;51.024;13.826;2022-12-13T06:04:38;22.17;;;19.90;;
1276;SDS011;631;51.024;13.826;2022-12-13T06:07:03;26.10;;;20.83;;
1276;SDS011;631;51.024;13.826;2022-12-13T06:09:29;26.90;;;22.03;;
1276;SDS011;631;51.024;13.826;2022-12-13T06:11:54;25.43;;;21.17;;
1276;SDS011;631;51.024;13.826;2022-12-13T06:14:20;23.57;;;21.07;;
1276;SDS011;631;51.024;13.826;2022-12-13T06:16:46;25.50;;;21.43;;
1276;SDS011;631;51.024;13.826;2022-12-13T06:19:11;27.27;;;22.13;;
1276;SDS011;631;51.024;13.826;2022-12-13T06:21:37;24.17;;;21.57;;
1276;SDS011;631;51.024;13.826;2022-12-13T06:24:03;24.20;;;21.70;;
1276;SDS011;631;51.024;13.826;2022-12-13T06:26:29;25.27;;;22.67;;
1276;SDS011;631;51.024;13.826;2022-12-13T06:28:55;25.57;;;22.13;;
1276;SDS011;631;51.024;13.826;2022-12-13T06:31:21;24.73;;;21.60;;
1276;SDS011;631;51.024;13.826;2022-12-13T06:33:46;26.63;;;22.50;;
1276;SDS011;631;51.024;13.826;2022-12-13T06:36:12;25.10;;;22.13;;
1276;SDS011;631;51.024;13.826;2022-12-13T06:38:37;25.97;;;23.17;;
1276;SDS011;631;51.024;13.826;2022-12-13T06:41:10;26.77;;;22.40;;
1276;SDS011;631;51.024;13.826;2022-12-13T06:43:46;22.95;;;20.50;;
1276;SDS011;631;51.024;13.826;2022-12-13T06:46:13;24.88;;;22.05;;
1276;SDS011;631;51.024;13.826;2022-12-13T06:48:38;26.67;;;22.35;;
1276;SDS011;631;51.024;13.826;2022-12-13T06:51:05;27.27;;;23.20;;
1276;SDS011;631;51.024;13.826;2022-12-13T06:53:33;26.98;;;24.10;;
1276;SDS011;631;51.024;13.826;2022-12-13T06:56:07;25.60;;;22.15;;
1276;SDS011;631;51.024;13.826;2022-12-13T06:58:34;29.98;;;23.00;;
1276;SDS011;631;51.024;13.826;2022-12-13T07:01:04;26.95;;;23.05;;
1276;SDS011;631;51.024;13.826;2022-12-13T07:03:30;27.58;;;22.25;;
1276;SDS011;631;51.024;13.826;2022-12-13T07:06:00;28.80;;;23.27;;
1276;SDS011;631;51.024;13.826;2022-12-13T07:08:29;27.48;;;23.00;;
1276;SDS011;631;51.024;13.826;2022-12-13T07:10:55;28.15;;;23.10;;
1276;SDS011;631;51.024;13.826;2022-12-13T07:13:21;28.52;;;23.05;;
1276;SDS011;631;51.024;13.826;2022-12-13T07:15:47;29.37;;;24.17;;
1276;SDS011;631;51.024;13.826;2022-12-13T07:18:14;27.30;;;23.35;;
1276;SDS011;631;51.024;13.826;2022-12-13T07:20:40;27.10;;;22.87;;
1276;SDS011;631;51.024;13.826;2022-12-13T07:23:06;25.30;;;22.60;;
1276;SDS011;631;51.024;13.826;2022-12-13T07:25:32;28.57;;;22.83;;
1276;SDS011;631;51.024;13.826;2022-12-13T07:28:02;23.83;;;21.00;;
1276;SDS011;631;51.024;13.826;2022-12-13T07:30:34;27.05;;;22.83;;
1276;SDS011;631;51.024;13.826;2022-12-13T07:33:02;25.55;;;20.40;;
1276;SDS011;631;51.024;13.826;2022-12-13T07:35:29;24.45;;;21.60;;
1276;SDS011;631;51.024;13.826;2022-12-13T07:37:56;26.05;;;20.45;;
1276;SDS011;631;51.024;13.826;2022-12-13T07:40:22;28.23;;;23.27;;
1276;SDS011;631;51.024;13.826;2022-12-13T07:42:51;22.13;;;18.60;;
1276;SDS011;631;51.024;13.826;2022-12-13T07:45:18;28.30;;;22.67;;
1276;SDS011;631;51.024;13.826;2022-12-13T07:47:45;26.00;;;22.48;;
1276;SDS011;631;51.024;13.826;2022-12-13T07:50:10;28.10;;;20.83;;
1276;SDS011;631;51.024;13.826;2022-12-13T07:52:36;26.88;;;21.88;;
1276;SDS011;631;51.024;13.826;2022-12-13T07:55:02;28.00;;;21.00;;
1276;SDS011;631;51.024;13.826;2022-12-13T07:57:29;29.00;;;22.05;;
1276;SDS011;631;51.024;13.826;2022-12-13T07:59:55;25.08;;;21.17;;
1276;SDS011;631;51.024;13.826;2022-12-13T08:02:22;25.90;;;21.13;;
1276;SDS011;631;51.024;13.826;2022-12-13T08:04:48;26.73;;;21.33;;
1276;SDS011;631;51.024;13.826;2022-12-13T08:07:13;25.83;;;21.73;;
1276;SDS011;631;51.024;13.826;2022-12-13T08:09:39;26.57;;;22.00;;
1276;SDS011;631;51.024;13.826;2022-12-13T08:12:04;28.00;;;22.87;;
1276;SDS011;631;51.024;13.826;2022-12-13T08:14:30;24.00;;;21.40;;
1276;SDS011;631;51.024;13.826;2022-12-13T08:16:56;29.63;;;22.43;;
1276;SDS011;631;51.024;13.826;2022-12-13T08:19:22;25.30;;;22.50;;
1276;SDS011;631;51.024;13.826;2022-12-13T08:21:48;26.65;;;22.45;;
1276;SDS011;631;51.024;13.826;2022-12-13T08:24:17;29.30;;;23.17;;
1276;SDS011;631;51.024;13.826;2022-12-13T08:26:43;28.42;;;22.70;;
1276;SDS011;631;51.024;13.826;2022-12-13T08:29:11;28.23;;;22.87;;
1276;SDS011;631;51.024;13.826;2022-12-13T08:31:37;22.92;;;20.50;;
1276;SDS011;631;51.024;13.826;2022-12-13T08:34:03;27.77;;;21.77;;
1276;SDS011;631;51.024;13.826;2022-12-13T08:36:28;26.00;;;23.20;;
1276;SDS011;631;51.024;13.826;2022-12-13T08:38:54;27.70;;;22.17;;
1276;SDS011;631;51.024;13.826;2022-12-13T08:41:20;26.15;;;23.45;;
1276;SDS011;631;51.024;13.826;2022-12-13T08:43:46;25.50;;;21.83;;
1276;SDS011;631;51.024;13.826;2022-12-13T08:46:12;22.23;;;19.83;;
1276;SDS011;631;51.024;13.826;2022-12-13T08:48:38;22.37;;;19.97;;
1276;SDS011;631;51.024;13.826;2022-12-13T08:51:05;22.40;;;20.20;;
1276;SDS011;631;51.024;13.826;2022-12-13T08:53:32;21.92;;;19.65;;
1276;SDS011;631;51.024;13.826;2022-12-13T08:56:02;22.50;;;20.20;;
1276;SDS011;631;51.024;13.826;2022-12-13T08:58:30;23.63;;;21.13;;
1276;SDS011;631;51.024;13.826;2022-12-13T09:00:56;23.85;;;20.88;;
1276;SDS011;631;51.024;13.826;2022-12-13T09:03:22;26.83;;;21.70;;
1276;SDS011;631;51.024;13.826;2022-12-13T09:05:47;25.27;;;21.90;;
1276;SDS011;631;51.024;13.826;2022-12-13T09:08:13;23.07;;;20.80;;
1276;SDS011;631;51.024;13.826;2022-12-13T09:10:39;24.40;;;21.97;;
1276;SDS011;631;51.024;13.826;2022-12-13T09:13:05;24.73;;;22.40;;
1276;SDS011;631;51.024;13.826;2022-12-13T09:15:31;23.67;;;21.47;;
1276;SDS011;631;51.024;13.826;2022-12-13T09:17:57;22.10;;;20.05;;
1276;SDS011;631;51.024;13.826;2022-12-13T09:20:23;22.40;;;20.30;;
1276;SDS011;631;51.024;13.826;2022-12-13T09:22:49;22.40;;;20.45;;
1276;SDS011;631;51.024;13.826;2022-12-13T09:25:15;23.63;;;21.45;;
1276;SDS011;631;51.024;13.826;2022-12-13T09:27:40;23.30;;;21.20;;
1276;SDS011;631;51.024;13.826;2022-12-13T09:30:07;23.33;;;21.17;;
1276;SDS011;631;51.024;13.826;2022-12-13T09:32:37;24.00;;;21.88;;
1276;SDS011;631;51.024;13.826;2022-12-13T09:35:04;24.65;;;22.42;;
1276;SDS011;631;51.024;13.826;2022-12-13T09:37:29;23.05;;;20.90;;
1276;SDS011;631;51.024;13.826;2022-12-13T09:39:56;23.23;;;21.25;;
1276;SDS011;631;51.024;13.826;2022-12-13T09:42:22;22.80;;;20.77;;
1276;SDS011;631;51.024;13.826;2022-12-13T09:44:54;22.33;;;20.15;;
1276;SDS011;631;51.024;13.826;2022-12-13T09:47:33;23.73;;;21.73;;
1276;SDS011;631;51.024;13.826;2022-12-13T09:50:05;21.90;;;19.95;;
1276;SDS011;631;51.024;13.826;2022-12-13T09:52:37;21.17;;;19.27;;
1276;SDS011;631;51.024;13.826;2022-12-13T09:55:50;21.98;;;20.05;;
1276;SDS011;631;51.024;13.826;2022-12-13T09:58:03;21.80;;;19.77;;
1276;SDS011;631;51.024;13.826;2022-12-13T10:00:34;22.13;;;20.23;;
1276;SDS011;631;51.024;13.826;2022-12-13T10:03:00;21.08;;;19.17;;
1276;SDS011;631;51.024;13.826;2022-12-13T10:05:30;21.98;;;19.98;;
1276;SDS011;631;51.024;13.826;2022-12-13T10:08:03;22.35;;;20.25;;
1276;SDS011;631;51.024;13.826;2022-12-13T10:10:35;20.50;;;18.60;;
1276;SDS011;631;51.024;13.826;2022-12-13T10:16:02;21.25;;;19.35;;
1276;SDS011;631;51.024;13.826;2022-12-13T10:18:35;23.02;;;20.95;;
1276;SDS011;631;51.024;13.826;2022-12-13T10:21:25;22.63;;;20.63;;
1276;SDS011;631;51.024;13.826;2022-12-13T10:23:50;22.40;;;20.50;;
1276;SDS011;631;51.024;13.826;2022-12-13T10:26:16;21.40;;;19.70;;
1276;SDS011;631;51.024;13.826;2022-12-13T10:28:41;20.80;;;19.00;;
1276;SDS011;631;51.024;13.826;2022-12-13T10:31:08;20.10;;;18.40;;
1276;SDS011;631;51.024;13.826;2022-12-13T10:33:43;20.40;;;18.60;;
1276;SDS011;631;51.024;13.826;2022-12-13T10:36:30;20.38;;;18.77;;
1276;SDS011;631;51.024;13.826;2022-12-13T10:39:00;20.83;;;19.15;;
1276;SDS011;631;51.024;13.826;2022-12-13T10:41:32;19.40;;;17.63;;
1276;SDS011;631;51.024;13.826;2022-12-13T10:44:17;20.90;;;19.20;;
1276;SDS011;631;51.024;13.826;2022-12-13T10:46:49;18.83;;;17.42;;
1276;SDS011;631;51.024;13.826;2022-12-13T10:49:21;19.67;;;17.90;;
1276;SDS011;631;51.024;13.826;2022-12-13T10:51:49;19.10;;;17.60;;
1276;SDS011;631;51.024;13.826;2022-12-13T10:54:24;18.70;;;17.10;;
1276;SDS011;631;51.024;13.826;2022-12-13T10:56:55;19.73;;;18.17;;
1276;SDS011;631;51.024;13.826;2022-12-13T10:59:32;19.35;;;17.65;;
1276;SDS011;631;51.024;13.826;2022-12-13T11:04:48;21.00;;;19.20;;
1276;SDS011;631;51.024;13.826;2022-12-13T11:07:36;20.17;;;18.27;;
1276;SDS011;631;51.024;13.826;2022-12-13T11:10:21;21.40;;;19.60;;
1276;SDS011;631;51.024;13.826;2022-12-13T11:12:53;20.40;;;18.67;;
1276;SDS011;631;51.024;13.826;2022-12-13T11:15:31;19.57;;;18.07;;
1276;SDS011;631;51.024;13.826;2022-12-13T11:18:04;17.87;;;16.37;;
1276;SDS011;631;51.024;13.826;2022-12-13T11:20:33;20.43;;;18.73;;
1276;SDS011;631;51.024;13.826;2022-12-13T11:23:02;19.47;;;17.87;;
1276;SDS011;631;51.024;13.826;2022-12-13T11:25:40;20.00;;;18.50;;
1276;SDS011;631;51.024;13.826;2022-12-13T11:28:30;20.83;;;19.13;;
1276;SDS011;631;51.024;13.826;2022-12-13T11:42:09;21.57;;;19.77;;
1276;SDS011;631;51.024;13.826;2022-12-13T11:45:15;21.17;;;19.47;;
1276;SDS011;631;51.024;13.826;2022-12-13T11:48:00;22.80;;;21.00;;
1276;SDS011;631;51.024;13.826;2022-12-13T11:50:47;22.50;;;20.57;;
1276;SDS011;631;51.024;13.826;2022-12-13T11:58:42;20.00;;;18.40;;
1276;SDS011;631;51.024;13.826;2022-12-13T12:01:11;19.37;;;17.90;;
1276;SDS011;631;51.024;13.826;2022-12-13T12:03:46;20.80;;;18.97;;
1276;SDS011;631;51.024;13.826;2022-12-13T12:06:19;20.40;;;18.90;;
1276;SDS011;631;51.024;13.826;2022-12-13T12:08:58;20.80;;;19.10;;
1276;SDS011;631;51.024;13.826;2022-12-13T12:13:59;20.80;;;19.10;;
1276;SDS011;631;51.024;13.826;2022-12-13T12:19:09;19.10;;;17.50;;
1276;SDS011;631;51.024;13.826;2022-12-13T12:38:21;16.87;;;15.57;;
1276;SDS011;631;51.024;13.826;2022-12-13T12:43:31;17.57;;;16.30;;
1276;SDS011;631;51.024;13.826;2022-12-13T13:00:19;18.20;;;16.80;;
1276;SDS011;631;51.024;13.826;2022-12-13T13:02:50;18.47;;;17.07;;
1276;SDS011;631;51.024;13.826;2022-12-13T13:08:01;17.80;;;16.40;;
1276;SDS011;631;51.024;13.826;2022-12-13T13:10:37;16.43;;;15.10;;
1276;SDS011;631;51.024;13.826;2022-12-13T13:13:05;16.60;;;15.30;;
1276;SDS011;631;51.024;13.826;2022-12-13T13:17:56;15.47;;;14.30;;
1276;SDS011;631;51.024;13.826;2022-12-13T13:20:23;15.00;;;14.10;;
1276;SDS011;631;51.024;13.826;2022-12-13T13:22:53;15.67;;;14.57;;
1276;SDS011;631;51.024;13.826;2022-12-13T13:25:37;15.07;;;14.00;;
1276;SDS011;631;51.024;13.826;2022-12-13T13:28:04;14.80;;;13.70;;
1276;SDS011;631;51.024;13.826;2022-12-13T13:30:38;15.17;;;14.10;;
1276;SDS011;631;51.024;13.826;2022-12-13T13:33:45;14.43;;;13.43;;
1276;SDS011;631;51.024;13.826;2022-12-13T13:39:03;14.60;;;13.60;;
1276;SDS011;631;51.024;13.826;2022-12-13T13:41:38;15.30;;;14.30;;
1276;SDS011;631;51.024;13.826;2022-12-13T13:52:36;15.90;;;14.80;;
1276;SDS011;631;51.024;13.826;2022-12-13T14:23:51;18.47;;;16.87;;
1276;SDS011;631;51.024;13.826;2022-12-13T14:28:50;19.13;;;17.45;;
1276;SDS011;631;51.024;13.826;2022-12-13T14:33:44;22.40;;;20.20;;
1276;SDS011;631;51.024;13.826;2022-12-13T14:36:14;20.92;;;19.13;;
1276;SDS011;631;51.024;13.826;2022-12-13T14:38:42;20.00;;;18.10;;
1276;SDS011;631;51.024;13.826;2022-12-13T14:41:17;20.85;;;18.95;;
1276;SDS011;631;51.024;13.826;2022-12-13T14:43:44;19.98;;;18.27;;
1276;SDS011;631;51.024;13.826;2022-12-13T14:46:11;21.25;;;19.02;;
1276;SDS011;631;51.024;13.826;2022-12-13T14:51:42;21.42;;;19.52;;
1276;SDS011;631;51.024;13.826;2022-12-13T14:54:03;21.13;;;19.17;;
1276;SDS011;631;51.024;13.826;2022-12-13T14:56:30;19.20;;;17.50;;
1276;SDS011;631;51.024;13.826;2022-12-13T14:58:57;21.10;;;19.00;;
1276;SDS011;631;51.024;13.826;2022-12-13T15:03:53;23.67;;;20.17;;
1276;SDS011;631;51.024;13.826;2022-12-13T15:06:19;22.70;;;20.40;;
1276;SDS011;631;51.024;13.826;2022-12-13T15:08:45;21.50;;;19.50;;
1276;SDS011;631;51.024;13.826;2022-12-13T15:11:12;20.25;;;18.25;;
1276;SDS011;631;51.024;13.826;2022-12-13T15:13:39;21.00;;;19.00;;
1276;SDS011;631;51.024;13.826;2022-12-13T15:16:09;21.70;;;19.50;;
1276;SDS011;631;51.024;13.826;2022-12-13T15:18:43;21.55;;;19.25;;
1276;SDS011;631;51.024;13.826;2022-12-13T15:21:22;19.47;;;17.63;;
1276;SDS011;631;51.024;13.826;2022-12-13T15:23:49;19.48;;;17.40;;
1276;SDS011;631;51.024;13.826;2022-12-13T15:26:22;20.38;;;17.45;;
1276;SDS011;631;51.024;13.826;2022-12-13T15:28:54;19.30;;;17.33;;
1276;SDS011;631;51.024;13.826;2022-12-13T15:31:31;20.30;;;18.15;;
1276;SDS011;631;51.024;13.826;2022-12-13T15:36:49;21.55;;;19.25;;
1276;SDS011;631;51.024;13.826;2022-12-13T15:39:15;22.20;;;19.70;;
1276;SDS011;631;51.024;13.826;2022-12-13T15:41:43;20.95;;;18.95;;
1276;SDS011;631;51.024;13.826;2022-12-13T15:44:22;23.00;;;20.52;;
1276;SDS011;631;51.024;13.826;2022-12-13T15:46:55;21.85;;;19.42;;
1276;SDS011;631;51.024;13.826;2022-12-13T15:49:32;22.88;;;20.48;;
1276;SDS011;631;51.024;13.826;2022-12-13T15:52:42;23.90;;;20.83;;
1276;SDS011;631;51.024;13.826;2022-12-13T15:54:59;23.70;;;21.20;;
1276;SDS011;631;51.024;13.826;2022-12-13T15:57:27;24.98;;;21.98;;
1276;SDS011;631;51.024;13.826;2022-12-13T16:00:02;26.90;;;23.20;;
1276;SDS011;631;51.024;13.826;2022-12-13T16:02:50;25.95;;;23.00;;
1276;SDS011;631;51.024;13.826;2022-12-13T16:05:23;27.80;;;22.00;;
1276;SDS011;631;51.024;13.826;2022-12-13T16:07:49;24.48;;;21.73;;
1276;SDS011;631;51.024;13.826;2022-12-13T16:10:16;24.47;;;21.57;;
1276;SDS011;631;51.024;13.826;2022-12-13T16:12:45;27.15;;;22.67;;
1276;SDS011;631;51.024;13.826;2022-12-13T16:15:16;25.70;;;21.38;;
1276;SDS011;631;51.024;13.826;2022-12-13T16:17:42;26.20;;;22.90;;
1276;SDS011;631;51.024;13.826;2022-12-13T16:20:11;25.40;;;22.70;;
1276;SDS011;631;51.024;13.826;2022-12-13T16:22:39;29.10;;;25.73;;
1276;SDS011;631;51.024;13.826;2022-12-13T16:25:06;31.52;;;25.35;;
1276;SDS011;631;51.024;13.826;2022-12-13T16:27:36;28.65;;;25.65;;
1276;SDS011;631;51.024;13.826;2022-12-13T16:30:08;31.87;;;24.57;;
1276;SDS011;631;51.024;13.826;2022-12-13T16:32:40;32.83;;;27.63;;
1276;SDS011;631;51.024;13.826;2022-12-13T16:35:06;31.33;;;27.70;;
1276;SDS011;631;51.024;13.826;2022-12-13T16:37:31;32.50;;;27.83;;
1276;SDS011;631;51.024;13.826;2022-12-13T16:39:57;36.50;;;27.27;;
1276;SDS011;631;51.024;13.826;2022-12-13T16:42:25;40.92;;;31.30;;
1276;SDS011;631;51.024;13.826;2022-12-13T16:44:51;38.80;;;32.00;;
1276;SDS011;631;51.024;13.826;2022-12-13T16:47:17;33.63;;;28.83;;
1276;SDS011;631;51.024;13.826;2022-12-13T16:49:43;35.63;;;29.97;;
1276;SDS011;631;51.024;13.826;2022-12-13T16:52:08;34.40;;;28.80;;
1276;SDS011;631;51.024;13.826;2022-12-13T16:54:34;38.87;;;30.53;;
1276;SDS011;631;51.024;13.826;2022-12-13T16:57:00;37.20;;;29.43;;
1276;SDS011;631;51.024;13.826;2022-12-13T16:59:25;37.97;;;29.53;;
1276;SDS011;631;51.024;13.826;2022-12-13T17:01:52;37.85;;;30.75;;
1276;SDS011;631;51.024;13.826;2022-12-13T17:04:19;37.97;;;29.85;;
1276;SDS011;631;51.024;13.826;2022-12-13T17:06:46;37.58;;;31.00;;
1276;SDS011;631;51.024;13.826;2022-12-13T17:09:13;41.22;;;32.65;;
1276;SDS011;631;51.024;13.826;2022-12-13T17:11:39;41.30;;;31.47;;
1276;SDS011;631;51.024;13.826;2022-12-13T17:14:05;35.40;;;31.03;;
1276;SDS011;631;51.024;13.826;2022-12-13T17:16:31;39.80;;;31.83;;
1276;SDS011;631;51.024;13.826;2022-12-13T17:18:56;37.53;;;29.47;;
1276;SDS011;631;51.024;13.826;2022-12-13T17:21:22;38.87;;;29.57;;
1276;SDS011;631;51.024;13.826;2022-12-13T17:23:53;37.42;;;29.48;;
1276;SDS011;631;51.024;13.826;2022-12-13T17:26:19;35.22;;;29.13;;
1276;SDS011;631;51.024;13.826;2022-12-13T17:28:45;41.63;;;31.70;;